Gravette, AR

10:36 AM CST on January 31, 2015 (GMT -0600)
NW Arkansas Airport | Change Station
CLOSE
Current Station
Airport
Location: NW Arkansas Airport,
Elevation: 1286 ft
Nearby Weather Stations

Elev 1286 ft 36.28 °N, 94.31 °W | Updated 43 minutes ago

Overcast
Overcast
43 °F
Feels Like 41 °F
N
4
Wind Variable Wind from South

Today
High -- | Low -- °F
--% Chance of Precip.
Yesterday
High -- | Low -- °F
Precip. -- in
7:20 AM 5:42 PM
Waxing Gibbous, 90% visible
Pressure 30.25 in
Visibility 10.0 miles
Clouds Mostly Cloudy 11000 ft
Windchill 41 °F
Dew Point 22 °F
Humidity 43%
Rainfall 0.00 in
Snow Depth Not available.
UV 1 out of 12
Pollen 3.60 out of 12
Air Quality Not available.
Flu Activity Not available.
METAR KXNA 311553Z 17003KT 10SM BKN110 06/M06 A3024 RMK AO2 SLP242 T00611056

More Conditions Fewer Conditions

Pressure 30.25 in
Visibility 10.0 miles
Clouds Mostly Cloudy 11000 ft
Windchill 41 °F
Dew Point 22 °F
Humidity 43%
Rainfall 0.00 in
Snow Depth Not available.
UV 1 out of 12
Pollen 3.60 out of 12
Air Quality Not available.
Flu Activity Not available.
METAR KXNA 311553Z 17003KT 10SM BKN110 06/M06 A3024 RMK AO2 SLP242 T00611056

More Conditions Fewer Conditions

Nowcast | as of 9:33 am CST on January 31, 2015

At 9:30 am... National Weather Service Doppler radar continued to indicate an area of predominantly light rain... moving to the northeast across parts of northeast Oklahoma. Most affected were locations along and west of Highway 75 and along and north of I 40. Through 11:00 am... light to occasionally moderate rain is expected to persist mostly along and west of Highway 75 and along and north of I 40 in eastern Oklahoma. The area of rain will continue to slowly advance eastward. Light average hourly rainfall rates of several hundredth of an inch... are anticipated.

×

10-Day Weather Forecast

Almanac

Astronomy

Jan. 31, 2015 Rise Set
Actual Time
Civil Twilight
Nautical Twilight
Astronomical Twilight
Moon
Length of Visible Light
Length of Day
Tomorrow will be .
, % of the Moon is Illuminated

Today's Extremes

State Highs State Lows

Community

WunderPhotos

Upload Photos

1,792,106 photos uploaded!

WunderBlogs® & News

Nearby

Air Quality

  Air Quality AQ Index Pollutant
Not available.

Snow Depth

Station Depth Elevation

Earthquake Activity

City Distance Mag. Time & Date
Minimum magnitude displayed is 2.5.

Coastal Water Temperatures

Place Temperature

Nearby Weather Stations